Rugby Municipal, ND

11:25 PM CDT on July 30, 2014 (GMT -0500)
Harvey (K5H4) Elev 1608 ft | 47.79 °N, 99.93 °W | Change Station

Current weather conditions updated 10 minutes ago

Clear
Clear
63 °F
Feels Like 63 °F
N
0
Wind Variable Wind from North

Tomorrow is forecast to be Warmer than today.

Today
High -- | Low -- °F
--% Chance of Precip.
Yesterday
High -- | Low -- °F
Precip. -- in
6:12 AM 9:19 PM
Waxing Crescent, 15% visible
Pressure 30.10 in
Visibility 8.0 miles
Clouds Clear
Dew Point 63 °F
Humidity 100%
Rainfall 0.00 in
Snow Depth Not available.
UV 0 out of 12
Pollen 6.70 out of 12
Air Quality Not available.
Flu Activity Not available.
METAR K5H4 310415Z AUTO 00000KT 8SM CLR 17/17 A3010 RMK AO2

More Conditions Fewer Conditions

Pressure 30.10 in
Visibility 8.0 miles
Clouds Clear
Dew Point 63 °F
Humidity 100%
Rainfall 0.00 in
Snow Depth Not available.
UV 0 out of 12
Pollen 6.70 out of 12
Air Quality Not available.
Flu Activity Not available.
METAR K5H4 310415Z AUTO 00000KT 8SM CLR 17/17 A3010 RMK AO2

More Conditions Fewer Conditions

10-Day Weather Forecast

Almanac

Astronomy

Jul. 30, 2014 Rise Set
Actual Time 6:12 AM CDT 9:19 PM CDT
Civil Twilight 5:35 AM CDT 9:56 PM CDT
Nautical Twilight 4:46 AM CDT 10:44 PM CDT
Astronomical Twilight 3:46 AM CDT 11:44 PM CDT
Moon 10:07 AM CDT (7/30) 10:39 PM CDT (7/30)
Length of Visible Light 16h 21m
Length of Day
15h 07m
Tomorrow will be 2m 41s shorter.
Waxing Crescent, 15% of the Moon is Illuminated
Jul 31
Waxing Crescent
Aug 3
First Quarter
Aug 10
Full
Aug 17
Last Quarter
Aug 25
New

Today's Extremes

State Highs State Lows

Community

WunderPhotos

Upload Photos

1,739,238 photos uploaded!

Nearby

Snow Depth

Station Depth Elevation
No new snow has been reported.

Earthquake Activity

City Distance Mag. Time & Date
No recent earthquake activity has been reported nearby.
Minimum magnitude displayed is 2.5.

Coastal Water Temperatures

Place Temperature
No Stations Reporting

Nearby Weather Stations

Station Location Temp. Dew Point Humidity Wind Precip. Elev Updated Type
Rugby, ND 61.0 °F 57 °F 88% South  at  0.0 mph - / hr 1545 ft 11:15 PM CDT Normal

Show More Stations Show Fewer Stations